Airfield :
LOGIN :

Register | Disclaimer

   EN    FR    IT 

 










Legend :    VFR   Marginal VFR   IFR   Intensive IFR   Very Intensive IFR
Visi :
Ceiling :
>= 8 km
>= 3000ft
5 to 8 km
1000 to 3000 ft
1500m to 5 km
500 to 1000 ft
800 to 1500m
200 to 500 ft
< 800m
< 200 ft
Symbols :   Thunderstorms  Fog  Heavy snow  Heavy precipitations  Wind > 20 kt
SIGMETs :     Misc.  Thunderstorms  Icing  Turbulence  Mountain Waves  Volcanic Ashes







- Airport Elevation : 681 ft
- IATA code : LBA
- Download approach charts


EGNM - Leeds Bradford

CURRENT METAR :
  • 152120Z 19005KT 150V220 CAVOK 09/02 Q1018

EXPIRED METARs :
  • 152050Z 22007KT 180V250 CAVOK 09/02 Q1018
  • 152020Z 22007KT 180V250 CAVOK 09/02 Q1019
  • 151950Z VRB03KT CAVOK 08/02 Q1019
  • 151920Z VRB03KT CAVOK 10/02 Q1019
  • 151850Z 21006KT CAVOK 10/02 Q1019

TAF AMD TAF EGNM
Valid from the 15 at 19:00 until the 16 at 18:00 UTC


151932Z 1519/1618 VRB03KT CAVOK
BECMG 1519/1522 21010KT
PROB30
TEMPO 1519/1524 8000
BECMG 1522/1601 FEW015 BKN025
TEMPO 1600/1607 BKN014
PROB30
TEMPO 1600/1604 24015G25KT 8000 -RA BKN009
PROB30
TEMPO 1604/1612 24015G28KT
BECMG 1616/1618 15006KT
PROB40
TEMPO 1617/1618 8000 BKN012
ATIS : +44 113 250 9696 (x2489)
No reported NOTAMs for that airfield.
1 SIGMET reported for the London FIR (EGTT) :
 
Severe mountain waves
EGTT SIGMET 01 VALID 151900/152300 EGRR
EGTT LONDON FIR SEV MTW FCST WI N5500 W00027 - N5429 W00019 - N5339 W00438 - N5500 W00504 - N5500 W00027 FL030/260 STNR NC=



MET'MAP, your aeronautical weather chart ! - Copyright ORBIFLY December 2007 - Disclaimer

ORBIFLY MET'MAP TEAM :

Programming & Development : Alexandra Zaïnal
Concept & Development : Baudouin d'Aumeries
Co-Development & Prog : Marc-Olivier Méhu
Technical & hardware support : Manuel Goepfert

Contact : metmap@orbifly.com




SOURCES & CREDITS :

   NOAA